Latest Weather Observations for Pearce

IDW60801

Issued at 10:53 am WST Monday 19 November 2018 (issued every 10 minutes, with the page automatically refreshed every 10 minutes)

About weather observations | Map of weather stations | Latest weather observations for WA | Other Formats
Station Details ID: 009053 Name: PEARCE RAAF Lat: -31.67 Lon: 116.02 Height: 40.0 m
Data from the previous 72 hours. | See also: Recent months at Pearce
Date/Time
WST
Temp
°C
App
Temp
°C
Dew
Point
°C
Rel
Hum
%
Delta-T
°C
Wind Press
QNH
hPa
Press
MSL
hPa
Rain since
9am
mm
Dir  Spd
km/h
Gust
km/h
Spd
kts
Gust
kts
19/10:30am 18.5 12.9 3.6 37 7.0 S 22 33 12 18 1020.1 1019.9 0.0
19/10:00am 19.0 13.9 4.0 37 7.1 S 20 32 11 17 1020.0 1019.8 0.0
19/09:30am 17.6 12.4 3.5 39 6.6 SSE 20 30 11 16 1020.1 1019.9 0.0
19/09:00am 17.1 11.8 3.1 39 6.4 S 20 32 11 17 1020.1 1019.9 0.0
19/08:30am 17.2 11.9 2.8 38 6.6 S 20 26 11 14 1020.0 1019.8 0.0
19/08:00am 16.4 11.1 2.1 38 6.4 SE 19 30 10 16 1019.9 1019.7 0.0
19/07:30am 16.3 11.6 3.0 41 6.1 SE 17 24 9 13 1019.8 1019.6 0.0
19/07:00am 16.1 10.8 2.9 41 6.0 SE 20 28 11 15 1019.2 1019.0 0.0
19/06:30am 15.0 9.7 3.2 45 5.3 SE 20 30 11 16 1019.0 1018.8 0.0
19/06:00am 14.2 8.9 3.1 47 5.0 SE 20 28 11 15 1018.7 1018.5 0.0
19/05:30am 13.8 9.2 3.6 50 4.6 SE 17 24 9 13 1018.5 1018.3 0.0
19/05:00am 14.0 9.5 4.0 51 4.6 SSE 17 26 9 14 1018.1 1017.9 0.0
19/04:30am 14.4 9.0 4.4 51 4.6 SSE 22 32 12 17 1017.5 1017.3 0.0
19/04:00am 14.8 9.8 4.8 51 4.7 SSE 20 32 11 17 1017.0 1016.8 0.0
19/03:30am 15.0 11.4 5.0 51 4.7 S 13 20 7 11 1016.8 1016.6 0.0
19/03:00am 15.3 11.4 5.5 52 4.7 SSE 15 19 8 10 1016.7 1016.5 0.0
19/02:30am 15.3 11.2 6.3 55 4.4 SSE 17 26 9 14 1016.6 1016.4 0.0
19/02:00am 15.3 10.5 7.3 59 4.0 S 22 30 12 16 1016.6 1016.4 0.0
19/01:30am 15.5 10.9 8.3 62 3.6 S 22 28 12 15 1016.4 1016.2 0.0
19/01:00am 15.6 10.8 8.8 64 3.5 S 24 32 13 17 1016.4 1016.2 0.0
19/12:30am 15.8 9.9 9.0 64 3.5 S 30 39 16 21 1016.6 1016.4 0.0
19/12:00am 16.2 11.5 9.2 63 3.6 SSW 24 32 13 17 1016.7 1016.5 0.0
 
Date/Time
WST
Temp
°C
App
Temp
°C
Dew
Point
°C
Rel
Hum
%
Delta-T
°C
Wind Press
QNH
hPa
Press
MSL
hPa
Rain since
9am
mm
Dir  Spd
km/h
Gust
km/h
Spd
kts
Gust
kts
18/11:30pm 16.4 11.9 10.0 66 3.4 S 24 33 13 18 1016.6 1016.4 0.0
18/11:00pm 16.9 12.7 11.2 69 3.1 S 24 33 13 18 1016.3 1016.1 0.0
18/10:30pm 17.2 13.6 11.9 71 2.9 S 22 32 12 17 1016.1 1015.9 0.0
18/10:00pm 17.0 14.7 12.9 77 2.3 SSW 17 22 9 12 1016.2 1016.0 0.0
18/09:30pm 16.3 15.2 13.2 82 1.7 SW 11 13 6 7 1016.0 1015.8 0.0
18/09:00pm 15.7 14.0 12.6 82 1.7 SW 13 15 7 8 1016.0 1015.8 0.0
18/08:30pm 16.6 14.6 12.8 78 2.1 SSW 15 19 8 10 1015.6 1015.4 0.0
18/08:00pm 17.0 14.7 12.9 77 2.3 SW 17 22 9 12 1015.5 1015.3 0.0
18/07:30pm 17.7 15.2 13.6 77 2.3 WSW 19 26 10 14 1015.0 1014.8 0.0
18/07:00pm 17.9 15.0 12.8 72 2.9 SW 20 28 11 15 1015.1 1014.9 0.0
18/06:30pm 19.2 15.3 12.0 63 4.0 SW 24 32 13 17 1014.6 1014.5 0.0
18/06:00pm 19.6 15.5 12.6 64 3.9 SW 26 35 14 19 1014.5 1014.4 0.0
18/05:30pm 21.1 15.9 11.7 55 5.2 SW 30 37 16 20 1013.9 1013.8 0.0
18/05:00pm 21.7 16.7 12.3 55 5.3 SW 30 41 16 22 1013.9 1013.8 0.0
18/04:30pm 22.1 16.7 12.1 53 5.6 SW 32 43 17 23 1013.7 1013.6 0.0
18/04:00pm 21.1 17.0 12.8 59 4.7 SW 26 35 14 19 1013.4 1013.3 0.0
18/03:30pm 22.1 17.2 12.6 55 5.4 WSW 30 43 16 23 1013.4 1013.3 0.0
18/03:00pm 23.6 18.4 11.6 47 6.8 WSW 30 39 16 21 1013.1 1013.0 0.0
18/02:30pm 24.2 20.0 13.4 51 6.3 WSW 28 37 15 20 1013.2 1013.1 0.0
18/02:00pm 23.4 18.3 11.8 48 6.6 WSW 30 41 16 22 1013.4 1013.3 0.0
18/01:30pm 23.6 19.5 11.6 47 6.8 SW 24 37 13 20 1013.4 1013.3 0.0
18/01:00pm 23.4 18.8 11.1 46 6.9 SW 26 37 14 20 1013.5 1013.4 0.0
18/12:30pm 23.1 18.9 11.2 47 6.6 SW 24 35 13 19 1013.8 1013.7 0.0
18/12:00pm 23.9 19.3 10.9 44 7.3 SW 26 39 14 21 1013.9 1013.8 0.0
18/11:30am 22.7 18.2 10.2 45 6.8 WSW 24 35 13 19 1014.0 1013.9 0.0
18/11:00am 23.9 19.4 11.3 45 7.1 WSW 26 37 14 20 1014.2 1014.1 0.0
18/10:30am 22.7 18.1 11.1 48 6.5 WSW 26 37 14 20 1014.3 1014.2 0.0
18/10:00am 22.0 17.7 12.0 53 5.6 WSW 26 33 14 18 1014.3 1014.2 0.0
18/09:30am 21.9 18.2 11.6 52 5.8 SW 22 32 12 17 1014.2 1014.1 0.0
18/09:00am 21.6 18.4 10.1 48 6.2 SW 17 24 9 13 1014.0 1013.9 0.0
18/08:30am 20.1 17.6 12.3 61 4.4 SW 17 24 9 13 1014.2 1014.1 0.0
18/08:00am 19.8 17.7 13.5 67 3.6 SW 17 20 9 11 1014.1 1014.0 0.0
18/07:30am 18.7 17.1 12.7 68 3.4 WSW 13 17 7 9 1013.9 1013.8 0.0
18/07:00am 18.6 18.1 12.6 68 3.4 WSW 7 11 4 6 1013.6 1013.5 0.0
18/06:30am 18.1 18.1 13.6 75 2.6 WSW 6 7 3 4 1013.5 1013.4 0.0
18/06:00am 17.1 17.0 13.4 79 2.1 WSW 6 7 3 4 1013.3 1013.2 0.0
18/05:30am 16.5 16.0 12.8 79 2.1 SW 7 9 4 5 1013.0 1012.9 0.0
18/05:00am 16.4 15.4 12.4 77 2.2 SW 9 11 5 6 1012.7 1012.6 0.0
18/04:30am 17.4 16.6 12.9 75 2.5 WSW 9 13 5 7 1012.4 1012.3 0.0
18/04:00am 17.5 17.0 12.8 74 2.6 WSW 7 9 4 5 1012.1 1012.0 0.0
18/03:30am 17.5 16.6 12.6 73 2.7 SSW 9 13 5 7 1012.1 1012.0 0.0
18/03:00am 17.5 16.2 12.4 72 2.8 SSW 11 13 6 7 1011.9 1011.8 0.0
18/02:30am 17.6 16.4 12.7 73 2.7 S 11 15 6 8 1011.9 1011.8 0.0
18/02:00am 17.6 16.0 12.7 73 2.7 SW 13 15 7 8 1012.2 1012.1 0.0
18/01:30am 17.7 15.8 13.0 74 2.6 SW 15 20 8 11 1012.3 1012.2 0.0
18/01:00am 17.8 15.9 13.1 74 2.6 SW 15 19 8 10 1012.4 1012.3 0.0
18/12:30am 17.9 16.4 13.2 74 2.7 SW 13 19 7 10 1012.5 1012.4 0.0
18/12:00am 17.7 16.8 13.6 77 2.3 WSW 11 15 6 8 1012.6 1012.5 0.0
 
Date/Time
WST
Temp
°C
App
Temp
°C
Dew
Point
°C
Rel
Hum
%
Delta-T
°C
Wind Press
QNH
hPa
Press
MSL
hPa
Rain since
9am
mm
Dir  Spd
km/h
Gust
km/h
Spd
kts
Gust
kts
17/11:30pm 17.6 17.1 13.7 78 2.2 SW 9 13 5 7 1012.8 1012.7 0.0
17/11:00pm 17.3 16.7 13.6 79 2.1 SW 9 11 5 6 1012.8 1012.7 0.0
17/10:30pm 17.2 17.0 13.5 79 2.1 WSW 7 9 4 5 1013.0 1012.9 0.0
17/10:00pm 17.1 16.5 13.4 79 2.1 SW 9 13 5 7 1013.1 1013.0 0.0
17/09:30pm 16.9 16.3 13.4 80 2.0 SSW 9 13 5 7 1013.3 1013.2 0.0
17/09:00pm 17.2 16.7 13.7 80 2.0 SW 9 11 5 6 1013.2 1013.1 0.0
17/08:30pm 17.3 16.4 13.8 80 2.0 SW 11 13 6 7 1013.2 1013.1 0.0
17/08:00pm 18.2 17.9 14.3 78 2.2 SW 9 13 5 7 1013.2 1013.1 0.0
17/07:30pm 18.3 16.5 14.4 78 2.3 WSW 17 22 9 12 1013.1 1013.0 0.0
17/07:00pm 18.3 17.1 14.0 76 2.5 SW 13 17 7 9 1012.8 1012.7 0.0
17/06:30pm 19.5 17.9 13.9 70 3.2 SW 15 20 8 11 1012.5 1012.4 0.0
17/06:00pm 20.9 19.4 14.3 66 3.9 SW 15 19 8 10 1012.2 1012.1 0.0
17/05:30pm 21.5 19.6 14.2 63 4.3 SW 17 24 9 13 1012.1 1012.0 0.0
17/05:00pm 22.5 20.5 14.9 62 4.5 WSW 19 26 10 14 1011.9 1011.8 0.0
17/04:30pm 21.8 19.6 14.4 63 4.3 WSW 19 26 10 14 1011.8 1011.7 0.0
17/04:00pm 21.8 18.8 14.9 65 4.1 W 24 32 13 17 1011.9 1011.8 0.0
17/03:30pm 22.5 20.2 14.6 61 4.7 WSW 20 26 11 14 1011.2 1011.1 0.0
17/03:00pm 25.2 23.9 15.8 56 5.7 WSW 17 28 9 15 1011.2 1011.1 0.0
17/02:30pm 23.3 22.0 15.9 63 4.5 W 17 26 9 14 1011.3 1011.2 0.0
17/02:00pm 23.9 22.6 16.7 64 4.4 W 19 26 10 14 1011.5 1011.4 0.0
17/01:30pm 23.3 21.8 16.4 65 4.2 W 19 28 10 15 1011.7 1011.6 0.0
17/01:00pm 23.5 21.2 15.8 62 4.7 W 22 30 12 16 1011.8 1011.7 0.0
17/12:30pm 25.1 22.4 16.5 59 5.3 W 26 33 14 18 1011.8 1011.7 0.0
17/12:00pm 25.6 23.4 17.0 59 5.3 W 24 33 13 18 1011.8 1011.7 0.0
17/11:30am 25.8 24.2 16.6 56 5.7 W 20 28 11 15 1011.6 1011.5 0.0
17/11:00am 26.1 25.0 17.7 60 5.3 WNW 20 24 11 13 1011.7 1011.6 0.0
17/10:30am 25.3 24.3 17.5 62 4.9 WNW 19 30 10 16 1011.9 1011.8 0.0
17/10:00am 24.5 23.6 17.7 66 4.3 NW 19 24 10 13 1012.1 1012.0 0.0
17/09:30am 24.5 23.7 18.0 67 4.1 NNW 19 24 10 13 1012.2 1012.1 0.0
17/09:21am 24.3 24.2 18.7 71 3.6 NW 17 24 9 13 1012.0 1011.9 0.0
17/09:00am 22.8 22.3 17.7 73 3.2 NNW 17 24 9 13 1012.0 1011.9 0.0
17/08:30am 22.1 21.1 17.5 75 2.8 NNW 19 24 10 13 1012.1 1012.0 0.0
17/08:00am 21.5 21.3 17.7 79 2.4 NW 15 20 8 11 1012.1 1012.0 0.0
17/07:30am 20.6 20.4 18.4 87 1.4 N 17 20 9 11 1012.0 1011.9 0.0
17/07:00am 19.6 19.4 18.4 93 0.7 N 17 20 9 11 1011.8 1011.7 0.0
17/06:30am 18.7 18.2 17.9 95 0.5 N 17 20 9 11 1011.8 1011.7 0.0
17/06:00am 18.4 17.8 17.6 95 0.5 N 17 22 9 12 1011.5 1011.4 0.0
17/05:30am 18.0 17.2 17.0 94 0.6 N 17 22 9 12 1011.4 1011.3 0.0
17/05:10am 18.1 16.9 17.0 93 0.7 N 19 24 10 13 1011.1 1011.0 0.0
17/05:00am 18.0 16.6 16.9 93 0.7 N 20 26 11 14 1010.9 1010.8 0.0
17/04:30am 17.9 16.9 16.6 92 0.8 N 17 26 9 14 1010.4 1010.3 0.0
17/04:00am 18.0 16.3 16.3 90 1.0 N 20 30 11 16 1010.3 1010.2 0.0
17/03:53am 18.2 17.2 16.5 90 1.0 N 17 28 9 15 1010.3 1010.2 0.0
17/03:30am 18.1 17.0 16.3 89 1.1 N 17 22 9 12 1010.2 1010.1 0.0
17/03:00am 18.5 18.1 16.3 87 1.3 N 13 17 7 9 1009.9 1009.8 0.0
17/02:30am 18.4 17.0 15.6 84 1.7 N 17 22 9 12 1009.9 1009.8 0.0
17/02:00am 18.3 16.9 15.6 84 1.6 NNW 17 20 9 11 1009.7 1009.6 0.0
17/01:30am 18.2 16.7 15.3 83 1.7 NNW 17 20 9 11 1009.7 1009.6 0.0
17/01:00am 18.2 17.4 15.1 82 1.8 N 13 15 7 8 1009.6 1009.5 0.0
17/12:30am 18.2 17.8 15.1 82 1.8 NNW 11 13 6 7 1010.1 1010.0 0.0
17/12:00am 20.0 20.1 15.4 75 2.7 N 9 11 5 6 1010.3 1010.2 0.0
 
Date/Time
WST
Temp
°C
App
Temp
°C
Dew
Point
°C
Rel
Hum
%
Delta-T
°C
Wind Press
QNH
hPa
Press
MSL
hPa
Rain since
9am
mm
Dir  Spd
km/h
Gust
km/h
Spd
kts
Gust
kts
16/11:30pm 20.6 20.7 15.4 72 3.1 N 9 11 5 6 1010.8 1010.7 0.0
16/11:00pm 20.9 20.2 15.4 71 3.3 N 13 15 7 8 1011.0 1010.9 0.0
16/10:30pm 21.6 21.9 15.9 70 3.4 N 9 11 5 6 1010.9 1010.8 0.0
16/10:00pm 22.3 22.9 15.9 67 3.9 N 7 11 4 6 1011.0 1010.9 0.0
16/09:30pm 22.7 22.9 14.8 61 4.7 N 7 7 4 4 1011.1 1011.0 0.0
16/09:00pm 24.9 26.4 14.7 53 6.1 CALM 0 0 0 0 1011.2 1011.1 0.0
16/08:30pm 25.7 27.0 15.1 52 6.4 NNW 2 6 1 3 1011.3 1011.2 0.0
16/08:00pm 26.0 25.8 14.8 50 6.7 WSW 9 13 5 7 1011.2 1011.1 0.0
16/07:30pm 27.2 26.4 13.9 44 7.9 S 11 15 6 8 1010.9 1010.8 0.0
16/07:00pm 28.7 28.2 13.8 40 8.9 SSE 9 13 5 7 1010.6 1010.5 0.0
16/06:30pm 30.9 29.1 13.2 34 10.6 SW 15 20 8 11 1010.1 1010.0 0.0
16/06:00pm 33.0 30.0 12.6 29 12.2 SSW 20 30 11 16 1009.6 1009.5 0.0
16/05:30pm 34.5 30.6 12.2 26 13.3 S 24 32 13 17 1009.1 1009.0 0.0
16/05:00pm 34.5 30.6 12.2 26 13.3 S 24 32 13 17 1009.0 1008.9 0.0
16/04:30pm 35.9 32.4 10.9 22 14.7 S 20 30 11 16 1009.1 1009.0 0.0
16/04:00pm 36.0 32.9 10.2 21 15.1 SSW 17 24 9 13 1009.4 1009.3 0.0
16/03:30pm 35.3 33.0 10.4 22 14.5 S 13 22 7 12 1009.8 1009.7 0.0
16/03:00pm 35.6 33.2 11.3 23 14.4 SSE 15 20 8 11 1010.0 1009.9 0.0
16/02:30pm 35.5 33.4 11.2 23 14.4 SSW 13 22 7 12 1010.3 1010.2 0.0
16/02:00pm 34.2 32.7 10.7 24 13.7 E 9 17 5 9 1010.9 1010.8 0.0
16/01:30pm 35.1 34.2 11.5 24 14.0 NW 7 17 4 9 1011.4 1011.3 0.0
16/01:00pm 34.3 33.2 12.0 25 13.3 E 9 19 5 10 1011.7 1011.6 0.0
16/12:30pm 33.3 32.0 11.2 26 12.9 E 9 20 5 11 1012.2 1012.1 0.0
16/12:00pm 31.9 29.6 11.7 29 11.9 NE 15 26 8 14 1012.9 1012.8 0.0
16/11:30am 31.4 28.1 11.7 29 11.5 NE 20 30 11 16 1013.4 1013.3 0.0
16/11:00am 30.8 27.7 12.2 32 10.9 ENE 20 35 11 19 1013.9 1013.8 0.0

Other Formats:

Comma delimited format used in spreadsheet applications
http://www.bom.gov.au/fwo/IDW60801/IDW60801.94612.axf

JavaScript Object Notation format (JSON) in row-major order
http://www.bom.gov.au/fwo/IDW60801/IDW60801.94612.json